Time;durP1;ratioP1;P1;durP2;ratioP2;P2;SDS_P1;SDS_P2;PMS_P1;PMS_P2;Temp;Humidity;BMP_temperature;BMP_pressure;BME280_temperature;BME280_humidity;BME280_pressure;Samples;Min_cycle;Max_cycle;Signal;HPM_P1;HPM_P2
2022/03/31 02:02:17;;;;;;;4.22;2.17;;;;;;;-145.18;100.00;46685.78;5288055;23;20065;-66
2022/03/31 02:04:42;;;;;;;3.20;1.83;;;;;;;-145.18;100.00;46687.75;4994273;28;20098;-66
2022/03/31 02:07:09;;;;;;;2.90;1.80;;;;;;;-145.18;100.00;46691.66;5008894;28;20652;-66
2022/03/31 02:09:34;;;;;;;2.38;1.63;;;;;;;-145.18;100.00;46685.78;5011022;28;20030;-66
2022/03/31 02:12:00;;;;;;;3.27;2.17;;;;;;;-145.18;100.00;46685.78;5010230;28;20041;-66
2022/03/31 02:14:25;;;;;;;4.53;2.20;;;;;;;-145.18;100.00;46689.69;5010524;28;20061;-66
2022/03/31 02:16:51;;;;;;;2.97;2.27;;;;;;;-145.18;100.00;46685.78;5010931;28;20116;-65
2022/03/31 02:19:17;;;;;;;3.67;1.97;;;;;;;-145.18;100.00;46681.88;5011062;28;20034;-65
2022/03/31 02:21:44;;;;;;;2.55;2.30;;;;;;;-145.18;100.00;46685.78;5011284;28;20037;-66
2022/03/31 02:24:09;;;;;;;2.88;2.00;;;;;;;-145.18;100.00;46687.75;4992727;28;20064;-66
2022/03/31 02:26:36;;;;;;;2.30;2.00;;;;;;;-145.18;100.00;46687.75;5011004;28;20117;-65
2022/03/31 02:29:03;;;;;;;3.15;1.88;;;;;;;-145.18;100.00;46685.78;5009319;28;20092;-65
2022/03/31 02:31:29;;;;;;;2.15;1.63;;;;;;;-145.18;100.00;46681.88;5011121;28;20049;-65
2022/03/31 02:33:54;;;;;;;3.10;1.80;;;;;;;-145.18;100.00;46685.78;4993238;28;20104;-65
2022/03/31 02:36:19;;;;;;;2.20;1.80;;;;;;;-145.18;100.00;46681.88;5010839;28;20056;-65
2022/03/31 02:38:45;;;;;;;2.67;2.00;;;;;;;-145.18;100.00;46687.75;5010651;28;20030;-65
2022/03/31 02:41:10;;;;;;;2.47;1.70;;;;;;;-145.18;100.00;46681.88;5010743;28;20088;-65
2022/03/31 02:43:35;;;;;;;3.70;1.73;;;;;;;-145.18;100.00;46685.78;5010751;28;20025;-65
2022/03/31 02:46:01;;;;;;;2.43;1.93;;;;;;;-145.18;100.00;46683.84;4993110;28;20440;-65
2022/03/31 02:48:26;;;;;;;3.30;1.80;;;;;;;-145.18;100.00;46685.78;5010740;28;20030;-65
2022/03/31 02:50:52;;;;;;;3.30;2.00;;;;;;;-145.18;100.00;46685.78;5010886;28;20044;-65
2022/03/31 02:56:03;;;;;;;3.22;1.90;;;;;;;-145.18;100.00;46679.94;5010722;28;20117;-65
2022/03/31 02:58:29;;;;;;;2.70;2.10;;;;;;;-145.18;100.00;46681.88;5010608;28;20100;-65
2022/03/31 03:00:54;;;;;;;3.40;2.00;;;;;;;-145.18;100.00;46691.66;5010741;28;20542;-65
2022/03/31 03:03:20;;;;;;;2.73;1.60;;;;;;;-145.18;100.00;46676.03;4994164;28;20054;-66
2022/03/31 03:05:46;;;;;;;5.80;2.67;;;;;;;-145.18;100.00;46679.94;4990954;28;20034;-66
2022/03/31 03:08:13;;;;;;;3.95;2.70;;;;;;;-145.18;100.00;46677.97;4990404;28;20559;-66
2022/03/31 03:10:38;;;;;;;3.90;2.55;;;;;;;-145.18;100.00;46681.88;4991091;28;20058;-66
2022/03/31 03:13:04;;;;;;;5.13;3.00;;;;;;;-145.18;100.00;46679.94;4990470;28;20057;-66
2022/03/31 03:15:29;;;;;;;4.63;2.73;;;;;;;-145.18;100.00;46677.97;4991058;28;20042;-66
2022/03/31 03:17:55;;;;;;;3.63;2.53;;;;;;;-145.18;100.00;46679.94;4990672;28;20034;-66
2022/03/31 03:20:20;;;;;;;5.27;3.17;;;;;;;-145.18;100.00;46674.06;4990830;28;20062;-66
2022/03/31 03:22:48;;;;;;;6.00;3.43;;;;;;;-145.18;100.00;46677.97;4990753;28;20030;-66
2022/03/31 03:25:15;;;;;;;6.15;3.60;;;;;;;-145.18;100.00;46674.06;4990771;28;20030;-66
2022/03/31 03:27:42;;;;;;;4.65;3.47;;;;;;;-145.18;100.00;46676.03;4972872;28;20113;-66
2022/03/31 03:30:09;;;;;;;6.50;3.03;;;;;;;-145.18;100.00;46679.94;4994250;28;20471;-66
2022/03/31 03:32:36;;;;;;;4.80;3.10;;;;;;;-145.18;100.00;46670.16;4994458;28;20056;-66
2022/03/31 03:35:02;;;;;;;4.97;3.35;;;;;;;-145.18;100.00;46676.03;4994479;28;20026;-66
2022/03/31 03:37:27;;;;;;;5.63;3.40;;;;;;;-145.18;100.00;46672.13;4976728;28;20049;-66
2022/03/31 03:39:53;;;;;;;5.20;3.20;;;;;;;-145.18;100.00;46683.84;4994891;28;20426;-66
2022/03/31 03:42:19;;;;;;;6.73;3.23;;;;;;;-145.18;100.00;46674.06;4993945;28;20034;-66
2022/03/31 03:44:45;;;;;;;4.45;2.65;;;;;;;-145.18;100.00;46677.97;4994431;28;20026;-67
2022/03/31 03:47:10;;;;;;;4.60;2.50;;;;;;;-145.18;100.00;46676.03;4994203;28;20030;-67
2022/03/31 03:49:36;;;;;;;4.63;2.63;;;;;;;-145.18;100.00;46672.13;4976771;28;20097;-67
2022/03/31 03:52:01;;;;;;;6.27;3.40;;;;;;;-145.18;100.00;46674.06;4994460;28;20446;-67
2022/03/31 03:54:27;;;;;;;6.07;2.70;;;;;;;-145.18;100.00;46672.13;4976752;28;20500;-67
2022/03/31 03:56:52;;;;;;;6.30;2.97;;;;;;;-145.18;100.00;46674.06;4994326;28;20038;-67
2022/03/31 03:59:18;;;;;;;6.10;3.97;;;;;;;-145.18;100.00;46676.03;4990884;28;20221;-67
2022/03/31 04:01:43;;;;;;;5.87;3.30;;;;;;;-145.18;100.00;46672.13;4974839;28;20110;-68
2022/03/31 04:04:10;;;;;;;6.47;3.20;;;;;;;-145.18;100.00;46674.06;4973719;28;20082;-67
2022/03/31 04:06:36;;;;;;;7.05;3.15;;;;;;;-145.18;100.00;46666.25;4974673;28;20483;-67
2022/03/31 04:09:03;;;;;;;9.70;3.95;;;;;;;-145.18;100.00;46676.03;4974015;28;20046;-67
2022/03/31 04:11:28;;;;;;;5.85;3.70;;;;;;;-145.18;100.00;46670.16;4974547;28;20146;-68
2022/03/31 04:13:54;;;;;;;5.60;3.60;;;;;;;-145.18;100.00;46666.25;4974299;28;20053;-68
2022/03/31 04:16:19;;;;;;;9.90;4.40;;;;;;;-145.18;100.00;46668.22;4974244;28;20062;-68
2022/03/31 04:18:45;;;;;;;5.00;3.17;;;;;;;-145.18;100.00;46666.25;4974296;28;20035;-68
2022/03/31 04:21:10;;;;;;;9.33;3.90;;;;;;;-145.18;100.00;46672.13;4974272;28;20110;-69
2022/03/31 04:23:36;;;;;;;13.77;3.77;;;;;;;-145.18;100.00;46677.97;4973648;28;20070;-69
2022/03/31 04:26:01;;;;;;;7.67;4.00;;;;;;;-145.18;100.00;46670.16;4974266;28;20399;-69
2022/03/31 04:28:27;;;;;;;5.40;3.43;;;;;;;-145.18;100.00;46672.13;4974187;28;20034;-69
2022/03/31 04:30:54;;;;;;;6.05;3.03;;;;;;;-145.18;100.00;46668.22;4974264;28;20448;-67
2022/03/31 04:33:20;;;;;;;5.25;3.22;;;;;;;-145.18;100.00;46668.22;4956413;28;20042;-69
2022/03/31 04:35:45;;;;;;;6.57;3.67;;;;;;;-145.18;100.00;46666.25;4974154;28;20471;-69
2022/03/31 04:38:11;;;;;;;8.23;3.80;;;;;;;-145.18;100.00;46668.22;4981376;28;20111;-69
2022/03/31 04:40:36;;;;;;;5.83;3.37;;;;;;;-145.18;100.00;46666.25;4982947;28;20056;-69
2022/03/31 04:43:02;;;;;;;3.70;2.50;;;;;;;-145.18;100.00;46668.22;4982554;28;20401;-69
2022/03/31 04:45:27;;;;;;;5.50;3.70;;;;;;;-145.18;100.00;46662.34;4982600;28;20026;-69
2022/03/31 04:47:52;;;;;;;8.77;3.93;;;;;;;-145.18;100.00;46670.16;4983399;28;20036;-69
2022/03/31 04:50:18;;;;;;;5.27;3.87;;;;;;;-145.18;100.00;46662.34;4982424;28;20110;-69
2022/03/31 04:52:43;;;;;;;6.87;4.20;;;;;;;-145.18;100.00;46664.31;4982662;28;20105;-67
2022/03/31 04:55:09;;;;;;;7.37;4.77;;;;;;;-145.18;100.00;46660.41;4983724;28;20042;-67
2022/03/31 04:57:35;;;;;;;10.75;4.40;;;;;;;-145.18;100.00;46666.25;4983631;28;20033;-67
2022/03/31 05:00:00;;;;;;;7.93;4.23;;;;;;;-145.18;100.00;46662.34;4967439;28;20492;-66
2022/03/31 05:02:26;;;;;;;7.10;4.70;;;;;;;-145.18;100.00;46662.34;4980688;28;20022;-66
2022/03/31 05:04:51;;;;;;;9.03;4.00;;;;;;;-145.18;100.00;46664.31;4969325;28;20049;-66
2022/03/31 05:07:17;;;;;;;7.97;4.03;;;;;;;-145.18;100.00;46664.31;4986722;28;20113;-66
2022/03/31 05:09:42;;;;;;;4.33;2.57;;;;;;;-145.18;100.00;46664.31;4983417;28;20066;-66
2022/03/31 05:12:08;;;;;;;5.47;3.90;;;;;;;-145.18;100.00;46662.34;4983379;28;20034;-66
2022/03/31 05:14:34;;;;;;;6.57;3.53;;;;;;;-145.18;100.00;46660.41;4978343;28;20042;-66
2022/03/31 05:17:00;;;;;;;8.17;4.43;;;;;;;-145.18;100.00;46664.31;4972147;28;20030;-66
2022/03/31 05:19:26;;;;;;;8.07;3.83;;;;;;;-145.18;100.00;46666.25;4973060;28;20030;-66
2022/03/31 05:21:51;;;;;;;6.80;4.00;;;;;;;-145.18;100.00;46660.41;4973029;28;20027;-67
2022/03/31 05:24:17;;;;;;;7.50;4.47;;;;;;;-145.18;100.00;46664.31;4972781;28;20042;-67
2022/03/31 05:26:42;;;;;;;7.47;4.40;;;;;;;-145.18;100.00;46664.31;4973257;28;20034;-67
2022/03/31 05:29:08;;;;;;;7.90;3.47;;;;;;;-145.18;100.00;46666.25;4972422;28;20046;-67
2022/03/31 05:31:34;;;;;;;13.77;4.80;;;;;;;-145.18;100.00;46662.34;4973014;28;20118;-66
2022/03/31 05:33:59;;;;;;;5.83;3.63;;;;;;;-145.18;100.00;46658.44;4955251;28;20122;-66
2022/03/31 05:36:24;;;;;;;8.97;5.27;;;;;;;-145.18;100.00;46656.50;4973188;28;20543;-65
2022/03/31 05:38:50;;;;;;;8.73;4.67;;;;;;;-145.18;100.00;46660.41;4972578;28;20113;-66
2022/03/31 05:41:15;;;;;;;7.13;3.67;;;;;;;-145.18;100.00;46654.53;4972346;28;20150;-65
2022/03/31 05:43:40;;;;;;;12.00;4.67;;;;;;;-145.18;100.00;46662.34;4972478;28;20041;-65
2022/03/31 05:46:06;;;;;;;7.40;4.07;;;;;;;-145.18;100.00;46662.34;4955347;28;20039;-65
2022/03/31 05:48:31;;;;;;;8.50;4.50;;;;;;;-145.18;100.00;46652.59;4972359;28;20110;-65
2022/03/31 05:50:57;;;;;;;6.43;4.27;;;;;;;-145.18;100.00;46664.31;4971830;28;20523;-65
2022/03/31 05:53:22;;;;;;;8.40;4.53;;;;;;;-145.18;100.00;46660.41;4972601;28;20038;-64
2022/03/31 05:55:48;;;;;;;5.63;3.80;;;;;;;-145.18;100.00;46658.44;4972496;28;20491;-65
2022/03/31 05:58:13;;;;;;;8.23;3.80;;;;;;;-145.18;100.00;46660.41;4972018;28;20042;-65
2022/03/31 06:00:39;;;;;;;10.37;4.73;;;;;;;-145.18;100.00;46662.34;4972652;28;20031;-65
2022/03/31 06:03:04;;;;;;;9.93;4.53;;;;;;;-145.18;100.00;46656.50;4971501;28;20042;-65
2022/03/31 06:05:30;;;;;;;9.47;4.93;;;;;;;-145.18;100.00;46656.50;4972308;28;20034;-65
2022/03/31 06:07:55;;;;;;;9.57;4.57;;;;;;;-145.18;100.00;46658.44;4972098;28;20487;-65
2022/03/31 06:10:21;;;;;;;9.57;4.87;;;;;;;-145.18;100.00;46660.41;4972118;28;20113;-65
2022/03/31 06:12:47;;;;;;;7.80;4.00;;;;;;;-145.18;100.00;46654.53;4971735;28;20149;-65
2022/03/31 06:15:13;;;;;;;8.27;4.10;;;;;;;-145.18;100.00;46658.44;4972354;28;20523;-65
2022/03/31 06:17:42;;;;;;;10.13;4.43;;;;;;;-145.18;100.00;46654.53;4972140;28;20538;-66
2022/03/31 06:20:09;;;;;;;9.35;4.78;;;;;;;-145.18;100.00;46654.53;4972166;28;20749;-66
2022/03/31 06:22:34;;;;;;;13.63;5.00;;;;;;;-145.18;100.00;46658.44;4971987;28;20507;-66
2022/03/31 06:25:00;;;;;;;9.60;4.20;;;;;;;-145.18;100.00;46656.50;4971425;28;20073;-66
2022/03/31 06:27:25;;;;;;;13.33;4.87;;;;;;;-145.18;100.00;46656.50;4971883;28;20031;-66
2022/03/31 06:29:52;;;;;;;9.43;4.18;;;;;;;-145.18;100.00;46658.44;4971647;28;20058;-66
2022/03/31 06:32:18;;;;;;;6.50;4.03;;;;;;;-145.18;100.00;46652.59;4971898;28;20054;-66
2022/03/31 06:34:44;;;;;;;9.53;4.07;;;;;;;-145.18;100.00;46656.50;4976148;28;20039;-66
2022/03/31 06:37:10;;;;;;;8.10;4.57;;;;;;;-145.18;100.00;46652.59;4971676;28;20054;-66
2022/03/31 06:39:36;;;;;;;9.30;3.90;;;;;;;-145.18;100.00;46654.53;4972277;28;20030;-67
2022/03/31 06:42:02;;;;;;;7.67;3.73;;;;;;;-145.18;100.00;46654.53;4986346;28;20069;-67
2022/03/31 06:44:27;;;;;;;10.63;4.75;;;;;;;-145.18;100.00;46648.69;4990642;28;20077;-66
2022/03/31 06:46:53;;;;;;;7.17;3.83;;;;;;;-145.18;100.00;46652.59;4990990;28;20054;-66
2022/03/31 06:49:18;;;;;;;11.43;4.30;;;;;;;-145.18;100.00;46656.50;4990262;28;20038;-66
2022/03/31 06:51:44;;;;;;;11.17;3.83;;;;;;;-145.18;100.00;46654.53;4990818;28;20041;-66
2022/03/31 06:54:10;;;;;;;8.03;4.30;;;;;;;-145.18;100.00;46650.63;4987136;28;20034;-66
2022/03/31 06:56:36;;;;;;;15.63;4.77;;;;;;;-145.18;100.00;46648.69;4973055;28;20087;-66
2022/03/31 06:59:02;;;;;;;11.98;4.90;;;;;;;-145.18;100.00;46652.59;4986116;28;20272;-66
2022/03/31 07:01:28;;;;;;;13.87;4.77;;;;;;;-145.18;100.00;46650.63;4984396;28;20034;-66
2022/03/31 07:03:53;;;;;;;9.10;5.40;;;;;;;-145.18;100.00;46650.63;4989395;28;20518;-66
2022/03/31 07:06:20;;;;;;;16.23;5.93;;;;;;;-145.18;100.00;46646.72;4990774;28;20319;-66
2022/03/31 07:08:45;;;;;;;14.40;4.90;;;;;;;-145.18;100.00;46650.63;4990690;28;20038;-66
2022/03/31 07:11:11;;;;;;;6.97;4.20;;;;;;;-145.18;100.00;46644.78;4990570;28;20045;-66
2022/03/31 07:13:37;;;;;;;7.63;4.77;;;;;;;-145.18;100.00;46648.69;4990222;28;20030;-66
2022/03/31 07:16:03;;;;;;;10.50;3.13;;;;;;;-145.18;100.00;46648.69;4990685;28;20399;-66
2022/03/31 07:18:29;;;;;;;4.70;2.90;;;;;;;-145.18;100.00;46648.69;4990394;28;20042;-66
2022/03/31 07:20:57;;;;;;;11.83;5.00;;;;;;;-145.18;100.00;46652.59;4990707;28;20038;-66
2022/03/31 07:23:23;;;;;;;8.25;4.85;;;;;;;-145.18;100.00;46652.59;4990613;28;20502;-66
2022/03/31 07:25:50;;;;;;;7.82;3.55;;;;;;;-145.18;100.00;46648.69;4990549;28;20041;-66
2022/03/31 07:28:16;;;;;;;13.25;5.22;;;;;;;-145.18;100.00;46652.59;4990047;28;20042;-66
2022/03/31 07:30:41;;;;;;;11.07;5.30;;;;;;;-145.18;100.00;46648.69;4990803;28;20500;-66
2022/03/31 07:33:08;;;;;;;7.17;4.03;;;;;;;-145.18;100.00;46650.63;4990174;28;20093;-66
2022/03/31 07:35:37;;;;;;;10.88;6.10;;;;;;;-145.18;100.00;46654.53;4990527;28;20494;-66
2022/03/31 07:38:04;;;;;;;9.25;5.35;;;;;;;-145.18;100.00;46650.63;4990204;28;20045;-66
2022/03/31 07:40:31;;;;;;;8.32;5.00;;;;;;;-145.18;100.00;46656.50;4990470;28;20066;-66
2022/03/31 07:42:57;;;;;;;11.60;4.85;;;;;;;-145.18;100.00;46654.53;4990302;28;20478;-66
2022/03/31 07:45:23;;;;;;;9.00;3.88;;;;;;;-145.18;100.00;46652.59;4990453;28;20031;-66
2022/03/31 07:47:50;;;;;;;15.00;4.93;;;;;;;-145.18;100.00;46648.69;4990660;28;20142;-66
2022/03/31 07:50:17;;;;;;;10.38;5.32;;;;;;;-145.18;100.00;46652.59;4972775;28;20068;-66
2022/03/31 07:52:44;;;;;;;10.38;5.95;;;;;;;-145.18;100.00;46648.69;4990582;28;20537;-66
2022/03/31 07:55:11;;;;;;;8.85;5.10;;;;;;;-145.18;100.00;46648.69;4972411;28;20486;-66
2022/03/31 07:57:38;;;;;;;9.98;3.75;;;;;;;-145.18;100.00;46650.63;4990553;28;20042;-66
2022/03/31 08:00:09;;;;;;;9.82;5.05;;;;;;;-145.18;100.00;46650.63;4989954;28;20038;-66
2022/03/31 08:02:34;;;;;;;6.68;4.70;;;;;;;-145.18;100.00;46652.59;4990312;28;20031;-66
2022/03/31 08:04:59;;;;;;;6.93;4.17;;;;;;;-145.18;100.00;46652.59;4989811;28;20085;-66
2022/03/31 08:07:25;;;;;;;7.10;4.20;;;;;;;-145.18;100.00;46654.53;4990521;28;20042;-66
2022/03/31 08:09:50;;;;;;;7.13;4.00;;;;;;;-145.18;100.00;46648.69;4989936;28;20058;-66
2022/03/31 08:12:17;;;;;;;7.30;4.07;;;;;;;-145.18;100.00;46656.50;4981215;28;20379;-66
2022/03/31 08:14:43;;;;;;;6.78;3.88;;;;;;;-145.18;100.00;46652.59;4990855;28;20052;-66
2022/03/31 08:17:08;;;;;;;5.50;2.93;;;;;;;-145.18;100.00;46648.69;4993605;28;20038;-66
2022/03/31 08:19:34;;;;;;;9.00;4.70;;;;;;;-145.18;100.00;46658.44;4993304;28;20035;-66
2022/03/31 08:22:02;;;;;;;6.33;2.73;;;;;;;-145.18;100.00;46652.59;4993659;28;20077;-66
2022/03/31 08:24:28;;;;;;;4.30;1.92;;;;;;;-145.18;100.00;46654.53;4993414;28;20031;-66
2022/03/31 08:26:54;;;;;;;5.47;3.33;;;;;;;-145.18;100.00;46654.53;4993659;28;20134;-66
2022/03/31 08:29:19;;;;;;;3.17;2.20;;;;;;;-145.18;100.00;46654.53;4993125;28;20495;-66
2022/03/31 08:31:45;;;;;;;5.67;3.10;;;;;;;-145.18;100.00;46656.50;4993503;28;20034;-66
2022/03/31 08:34:10;;;;;;;4.10;2.73;;;;;;;-145.18;100.00;46652.59;4992954;28;20501;-66
2022/03/31 08:36:36;;;;;;;11.10;3.60;;;;;;;-145.18;100.00;46648.69;4993494;28;20030;-66
2022/03/31 08:39:05;;;;;;;2.80;2.10;;;;;;;-145.18;100.00;46656.50;4992775;28;20033;-66
2022/03/31 08:41:31;;;;;;;2.33;1.77;;;;;;;-145.18;100.00;46654.53;4993642;28;20030;-66
2022/03/31 08:43:57;;;;;;;2.95;1.85;;;;;;;-145.18;100.00;46650.63;4992453;28;20061;-67
2022/03/31 08:46:23;;;;;;;4.30;2.03;;;;;;;-145.18;100.00;46652.59;4993283;28;20113;-66
2022/03/31 08:48:49;;;;;;;3.17;1.95;;;;;;;-145.18;100.00;46648.69;4992496;28;20077;-66
2022/03/31 08:51:15;;;;;;;3.70;1.83;;;;;;;-145.18;100.00;46644.78;4992780;28;20078;-66
2022/03/31 08:53:40;;;;;;;3.53;1.98;;;;;;;-145.18;100.00;46646.72;4992813;28;20022;-66
2022/03/31 08:56:09;;;;;;;5.03;2.27;;;;;;;-145.18;100.00;46638.91;4992701;28;20044;-66
2022/03/31 08:58:35;;;;;;;3.70;1.60;;;;;;;-145.18;100.00;46633.06;4992298;28;20026;-66
2022/03/31 09:01:00;;;;;;;2.87;1.77;;;;;;;-145.18;100.00;46631.09;4992593;28;20045;-66
2022/03/31 09:03:36;;;;;;;3.00;2.10;;;;;;;-145.18;100.00;46623.28;4986502;28;20104;-66
2022/03/31 09:06:03;;;;;;;4.03;2.33;;;;;;;-145.18;100.00;46611.56;4992644;28;20042;-66
2022/03/31 09:08:30;;;;;;;5.17;2.40;;;;;;;-145.18;100.00;46592.03;4989581;28;20066;-66
2022/03/31 09:11:00;;;;;;;5.20;2.00;;;;;;;-145.18;100.00;46570.53;4992804;28;20978;-66
2022/03/31 09:13:40;;;;;;;4.97;2.63;;;;;;;-145.18;100.00;46574.44;4980687;28;20059;-66
2022/03/31 09:16:09;;;;;;;3.53;2.28;;;;;;;-145.18;100.00;46554.91;4977529;28;20054;-66
2022/03/31 09:18:37;;;;;;;4.03;2.50;;;;;;;-145.18;100.00;46549.06;4973246;28;20039;-66
2022/03/31 09:21:05;;;;;;;4.35;2.30;;;;;;;-145.18;100.00;46543.19;4979016;28;20280;-66
2022/03/31 09:23:39;;;;;;;5.00;2.13;;;;;;;-145.18;100.00;46539.28;4992045;28;20049;-66
2022/03/31 09:26:08;;;;;;;2.33;1.70;;;;;;;-145.18;100.00;46533.44;4991385;28;20339;-66
2022/03/31 09:28:34;;;;;;;4.28;2.55;;;;;;;-145.18;100.00;46537.34;4991433;28;20345;-66
2022/03/31 09:30:59;;;;;;;3.43;2.03;;;;;;;-145.18;100.00;46531.47;4991807;28;20117;-66
2022/03/31 09:33:35;;;;;;;3.80;2.23;;;;;;;-145.18;100.00;46535.38;4991948;28;20738;-66
2022/03/31 09:36:00;;;;;;;5.13;2.70;;;;;;;-145.18;100.00;46535.38;4991657;28;20071;-66
2022/03/31 09:38:26;;;;;;;4.97;2.90;;;;;;;-145.18;100.00;46537.34;4991738;28;20109;-66
2022/03/31 09:40:52;;;;;;;5.50;2.77;;;;;;;-145.18;100.00;46529.53;4991661;28;20050;-66
2022/03/31 09:43:18;;;;;;;4.40;2.92;;;;;;;-145.18;100.00;46535.38;4991626;28;20030;-65
2022/03/31 09:45:43;;;;;;;4.50;2.57;;;;;;;-145.18;100.00;46539.28;4990674;28;20041;-66
2022/03/31 09:48:23;;;;;;;4.60;3.73;;;;;;;-145.18;100.00;46535.38;4991389;28;20058;-66
2022/03/31 09:50:50;;;;;;;5.60;4.07;;;;;;;-145.18;100.00;46535.38;4991609;28;20022;-66
2022/03/31 09:53:16;;;;;;;6.83;4.20;;;;;;;-145.18;100.00;46543.19;4991601;28;20375;-66
2022/03/31 09:55:43;;;;;;;7.63;4.83;;;;;;;-145.18;100.00;46541.25;4973714;28;20311;-66
2022/03/31 09:58:20;;;;;;;6.57;4.20;;;;;;;-145.18;100.00;46539.28;4991548;28;20276;-66
2022/03/31 10:00:46;;;;;;;6.32;4.72;;;;;;;-145.18;100.00;46537.34;4975803;28;20343;-66
2022/03/31 10:03:16;;;;;;;7.63;4.10;;;;;;;-145.18;100.00;46547.09;4990900;28;20026;-65
2022/03/31 10:05:42;;;;;;;5.03;3.60;;;;;;;-145.18;100.00;46543.19;4991256;28;20276;-65
2022/03/31 10:08:10;;;;;;;6.70;4.17;;;;;;;-145.18;100.00;46543.19;4991402;28;20272;-66
2022/03/31 10:10:37;;;;;;;9.17;4.67;;;;;;;-145.18;100.00;46533.44;4990828;28;20375;-65
2022/03/31 10:13:15;;;;;;;6.53;4.97;;;;;;;-145.18;100.00;46539.28;4990988;28;20267;-65
2022/03/31 10:15:42;;;;;;;5.30;4.20;;;;;;;-145.18;100.00;46539.28;4990580;28;20275;-65
2022/03/31 10:18:08;;;;;;;5.00;3.00;;;;;;;-145.18;100.00;46533.44;4991060;28;20264;-65
2022/03/31 10:20:33;;;;;;;7.27;4.00;;;;;;;-145.18;100.00;46533.44;4990908;28;20286;-65
2022/03/31 10:25:46;;;;;;;6.10;3.80;;;;;;;-145.18;100.00;46533.44;4990645;28;20061;-65
2022/03/31 10:28:22;;;;;;;4.63;3.27;;;;;;;-145.18;100.00;46537.34;4973348;28;20280;-66
2022/03/31 10:31:01;;;;;;;7.93;5.30;;;;;;;-145.18;100.00;46535.38;4990694;28;20256;-65
2022/03/31 10:33:38;;;;;;;5.73;3.80;;;;;;;-145.18;100.00;46531.47;4990705;28;20022;-65
2022/03/31 10:36:14;;;;;;;8.83;4.27;;;;;;;-145.18;100.00;46537.34;4990826;28;20295;-65
2022/03/31 10:38:55;;;;;;;11.03;4.27;;;;;;;-145.18;100.00;46535.38;4990708;28;20322;-65
2022/03/31 10:41:29;;;;;;;7.10;4.80;;;;;;;-145.18;100.00;46535.38;4990561;28;20272;-65
2022/03/31 10:43:58;;;;;;;6.07;4.13;;;;;;;-145.18;100.00;46535.38;4990505;28;20652;-66
2022/03/31 10:46:23;;;;;;;8.33;5.53;;;;;;;-145.18;100.00;46533.44;4990444;28;20276;-66
2022/03/31 10:48:53;;;;;;;9.73;6.17;;;;;;;-145.18;100.00;46531.47;4967873;28;20317;-65
2022/03/31 10:51:34;;;;;;;7.87;5.90;;;;;;;-145.18;100.00;46554.91;4993237;28;20082;-65
2022/03/31 10:54:00;;;;;;;4.23;3.37;;;;;;;-145.18;100.00;46552.97;4984424;28;20261;-66
2022/03/31 10:56:28;;;;;;;5.13;4.00;;;;;;;-145.18;100.00;46547.09;4990887;28;20272;-65
2022/03/31 10:58:57;;;;;;;6.00;4.30;;;;;;;-145.18;100.00;46543.19;4990190;28;20346;-66
2022/03/31 11:01:26;;;;;;;7.57;3.90;;;;;;;-145.18;100.00;46543.19;4990478;28;20272;-65
2022/03/31 11:04:07;;;;;;;5.90;4.37;;;;;;;-145.18;100.00;46541.25;4990226;28;20307;-65
2022/03/31 11:06:33;;;;;;;5.33;3.87;;;;;;;-145.18;100.00;46535.38;4990511;28;20303;-65
2022/03/31 11:08:58;;;;;;;5.93;4.33;;;;;;;-145.18;100.00;46537.34;4980998;28;20296;-65
2022/03/31 11:11:29;;;;;;;5.63;4.57;;;;;;;-145.18;100.00;46535.38;4982478;28;20280;-65
2022/03/31 11:13:57;;;;;;;5.93;4.33;;;;;;;-145.18;100.00;46533.44;4989539;28;20112;-65
2022/03/31 11:16:33;;;;;;;5.33;3.97;;;;;;;-145.18;100.00;46537.34;4990529;28;20287;-66
2022/03/31 11:19:04;;;;;;;7.97;5.00;;;;;;;-145.18;100.00;46543.19;4990086;28;20268;-65
2022/03/31 11:21:34;;;;;;;4.57;3.57;;;;;;;-145.18;100.00;46535.38;4989862;28;20256;-65
2022/03/31 11:24:00;;;;;;;7.77;4.40;;;;;;;-145.18;100.00;46541.25;4989614;28;20760;-65
2022/03/31 11:26:29;;;;;;;7.00;4.73;;;;;;;-145.18;100.00;46541.25;4973183;28;20276;-65
2022/03/31 11:28:55;;;;;;;7.20;5.37;;;;;;;-145.18;100.00;46537.34;4990075;28;20040;-66
2022/03/31 11:31:21;;;;;;;4.80;3.93;;;;;;;-145.18;100.00;46533.44;4989896;28;20341;-65
2022/03/31 11:33:48;;;;;;;5.90;3.87;;;;;;;-145.18;100.00;46539.28;4989897;28;20256;-65
2022/03/31 11:36:13;;;;;;;9.37;4.50;;;;;;;-145.18;100.00;46531.47;4971924;28;20279;-65
2022/03/31 11:38:39;;;;;;;7.70;3.83;;;;;;;-145.18;100.00;46541.25;4989944;28;20283;-65
2022/03/31 11:41:05;;;;;;;7.87;5.67;;;;;;;-145.18;100.00;46545.16;4989663;28;20058;-65
2022/03/31 11:43:32;;;;;;;8.77;5.60;;;;;;;-145.18;100.00;46537.34;4990482;28;20034;-65
2022/03/31 11:45:58;;;;;;;8.53;4.43;;;;;;;-145.18;100.00;46537.34;4989461;28;20326;-65
2022/03/31 11:48:35;;;;;;;8.73;4.93;;;;;;;-145.18;100.00;46539.28;4990339;28;20753;-65
2022/03/31 11:51:05;;;;;;;8.07;5.10;;;;;;;-145.18;100.00;46539.28;4992992;28;20513;-65
2022/03/31 11:53:33;;;;;;;6.43;5.30;;;;;;;-145.18;100.00;46539.28;4993155;28;21021;-65
2022/03/31 11:56:24;;;;;;;7.70;4.47;;;;;;;-145.18;100.00;46541.25;4993455;28;20268;-65
2022/03/31 11:58:56;;;;;;;6.23;4.33;;;;;;;-145.18;100.00;46541.25;4978742;28;20628;-65
2022/03/31 12:01:34;;;;;;;7.53;5.13;;;;;;;-145.18;100.00;46537.34;4993660;28;20351;-65
2022/03/31 12:03:59;;;;;;;8.13;4.40;;;;;;;-145.18;100.00;46535.38;4992717;28;20829;-65
2022/03/31 12:06:26;;;;;;;8.27;5.33;;;;;;;-145.18;100.00;46539.28;4993685;28;20287;-65
2022/03/31 12:08:55;;;;;;;8.33;6.23;;;;;;;-145.18;100.00;46539.28;4993157;28;20442;-65
2022/03/31 12:11:20;;;;;;;6.87;5.20;;;;;;;-145.18;100.00;46543.19;4993123;28;20291;-65
2022/03/31 12:13:48;;;;;;;10.77;5.83;;;;;;;-145.18;100.00;46541.25;4976193;28;20272;-65
2022/03/31 12:16:14;;;;;;;7.23;4.83;;;;;;;-145.18;100.00;46545.16;4993005;28;20073;-65
2022/03/31 12:18:42;;;;;;;8.53;5.90;;;;;;;-145.18;100.00;46541.25;4993560;28;20303;-65
2022/03/31 12:21:08;;;;;;;7.60;5.07;;;;;;;-145.18;100.00;46552.97;4992833;28;20027;-65
2022/03/31 12:23:41;;;;;;;11.03;6.23;;;;;;;-145.18;100.00;46552.97;4993301;28;20077;-65
2022/03/31 12:26:18;;;;;;;9.93;5.67;;;;;;;-145.18;100.00;46545.16;4992502;28;20018;-65
2022/03/31 12:28:44;;;;;;;8.33;6.20;;;;;;;-145.18;100.00;46552.97;4993640;28;20295;-65
2022/03/31 12:31:29;;;;;;;8.43;5.40;;;;;;;-145.18;100.00;46552.97;4992819;28;20376;-65
2022/03/31 12:33:56;;;;;;;8.10;5.73;;;;;;;-145.18;100.00;46554.91;4992934;28;20643;-65
2022/03/31 12:36:24;;;;;;;9.50;5.33;;;;;;;-145.18;100.00;46552.97;4988160;28;20367;-65
2022/03/31 12:38:52;;;;;;;9.37;4.77;;;;;;;-145.18;100.00;46552.97;4972384;28;20682;-65
2022/03/31 12:41:22;;;;;;;11.25;7.65;;;;;;;-145.18;100.00;46551.00;4987414;28;21767;-65
2022/03/31 12:44:10;;;;;;;16.03;7.97;;;;;;;-145.18;100.00;46558.81;4984242;28;20026;-65
2022/03/31 12:46:38;;;;;;;9.87;6.87;;;;;;;-145.18;100.00;46560.78;4974074;28;20288;-65
2022/03/31 12:49:10;;;;;;;11.30;6.97;;;;;;;-145.18;100.00;46556.88;4981574;28;21054;-65
2022/03/31 12:52:00;;;;;;;11.27;7.20;;;;;;;-145.18;100.00;46552.97;4981340;28;20287;-65
2022/03/31 12:54:29;;;;;;;7.27;4.80;;;;;;;-145.18;100.00;46554.91;4989433;28;20603;-65
2022/03/31 12:56:58;;;;;;;11.50;6.80;;;;;;;-145.18;100.00;46562.72;4992887;28;20649;-65
2022/03/31 12:59:33;;;;;;;9.43;6.50;;;;;;;-145.18;100.00;46568.59;4970629;28;20291;-65
2022/03/31 13:02:10;;;;;;;13.75;7.07;;;;;;;-145.18;100.00;46580.31;4985941;28;20274;-65
2022/03/31 13:04:44;;;;;;;8.98;6.40;;;;;;;-145.18;100.00;46588.13;4991887;28;20048;-65
2022/03/31 13:07:15;;;;;;;8.53;5.87;;;;;;;-145.18;100.00;46595.94;4992583;28;20046;-65
2022/03/31 13:09:42;;;;;;;10.80;6.40;;;;;;;-145.18;100.00;46613.50;4992167;28;20910;-65
2022/03/31 13:12:11;;;;;;;11.90;7.13;;;;;;;-145.18;100.00;46629.13;4974911;28;20311;-65
2022/03/31 13:14:42;;;;;;;9.17;6.07;;;;;;;-145.18;100.00;46638.91;4990179;28;20272;-65
2022/03/31 13:17:08;;;;;;;8.67;6.07;;;;;;;-145.18;100.00;46636.94;4980555;28;20272;-65